createdAt,value
2018-04-23T00:03:37.576Z,5.30
2018-04-23T00:13:40.764Z,5.13
2018-04-23T00:23:43.936Z,5.03
2018-04-23T00:33:47.179Z,5.00
2018-04-23T00:43:50.396Z,5.03
2018-04-23T00:53:53.587Z,5.00
2018-04-23T01:03:56.800Z,4.70
2018-04-23T01:14:00.008Z,5.30
2018-04-23T01:24:03.219Z,5.00
2018-04-23T01:34:06.406Z,5.10
2018-04-23T01:44:09.600Z,5.50
2018-04-23T01:54:12.949Z,5.20
2018-04-23T02:04:16.191Z,4.90
2018-04-23T02:14:19.365Z,5.20
2018-04-23T02:24:23.334Z,5.23
2018-04-23T02:34:26.527Z,5.30
2018-04-23T02:44:29.783Z,4.97
2018-04-23T02:54:33.015Z,5.27
2018-04-23T03:04:36.268Z,5.20
2018-04-23T03:14:39.445Z,4.97
2018-04-23T03:24:42.627Z,5.30
2018-04-23T03:34:45.835Z,5.10
2018-04-23T03:44:49.011Z,5.07
2018-04-23T03:54:52.220Z,5.17
2018-04-23T04:04:55.417Z,5.10
2018-04-23T04:15:16.611Z,5.07
2018-04-23T04:25:20.581Z,5.50
2018-04-23T04:35:23.797Z,5.43
2018-04-23T04:45:28.059Z,5.23
2018-04-23T04:55:31.482Z,5.43
2018-04-23T05:05:34.699Z,5.83
2018-04-23T05:15:38.000Z,5.07
2018-04-23T05:25:42.601Z,5.60
2018-04-23T05:35:46.617Z,5.80
2018-04-23T05:45:49.864Z,5.43
2018-04-23T05:55:53.069Z,5.60
2018-04-23T06:05:56.247Z,5.77
2018-04-23T06:15:59.439Z,5.30
2018-04-23T06:26:02.625Z,5.37
2018-04-23T06:36:06.510Z,6.50
2018-04-23T06:46:10.495Z,7.03
2018-04-23T06:56:14.485Z,6.67
2018-04-23T07:06:17.776Z,6.97
2018-04-23T07:16:21.017Z,6.53
2018-04-23T07:26:24.228Z,5.83
2018-04-23T07:36:27.458Z,6.40
2018-04-23T07:46:30.953Z,6.60
2018-04-23T07:56:35.117Z,6.27
2018-04-23T08:06:39.090Z,5.70
2018-04-23T08:16:43.044Z,5.60
2018-04-23T08:26:46.992Z,5.70
2018-04-23T08:36:50.704Z,4.93
2018-04-23T08:46:54.668Z,4.53
2018-04-23T08:56:57.845Z,4.07
2018-04-23T09:07:01.107Z,4.93
2018-04-23T09:17:04.281Z,5.10
2018-04-23T09:27:07.590Z,4.57
2018-04-23T09:37:10.777Z,4.63
2018-04-23T09:47:14.009Z,4.27
2018-04-23T09:57:18.043Z,4.73
2018-04-23T10:07:22.016Z,4.10
2018-04-23T10:17:25.241Z,4.43
2018-04-23T10:27:28.410Z,3.93
2018-04-23T10:37:32.531Z,4.30
2018-04-23T10:47:35.796Z,4.97
2018-04-23T10:57:39.835Z,4.10
2018-04-23T11:07:43.052Z,4.10
2018-04-23T11:17:46.240Z,3.80
2018-04-23T11:27:52.003Z,4.00
2018-04-23T11:38:08.488Z,4.10
2018-04-23T11:48:11.680Z,3.57
2018-04-23T11:58:14.851Z,3.40
2018-04-23T12:08:18.041Z,3.50
2018-04-23T12:18:21.990Z,3.30
2018-04-23T12:28:26.000Z,3.80
2018-04-23T12:38:29.199Z,3.90
2018-04-23T12:48:33.970Z,4.43
2018-04-23T12:58:37.944Z,3.90
2018-04-23T13:08:41.996Z,3.60
2018-04-23T13:18:45.165Z,3.40
2018-04-23T13:28:49.124Z,4.00
2018-04-23T13:38:53.100Z,3.97
2018-04-23T13:48:56.272Z,3.67
2018-04-23T13:58:59.479Z,10.13
2018-04-23T14:09:02.663Z,19.03
2018-04-23T14:19:05.869Z,7.57
2018-04-23T14:29:09.127Z,5.60
2018-04-23T14:39:12.426Z,4.87
2018-04-23T14:49:17.173Z,4.50
2018-04-23T14:59:20.488Z,6.30
2018-04-23T15:09:24.442Z,4.37
2018-04-23T15:19:28.579Z,4.17
2018-04-23T15:29:31.755Z,3.70
2018-04-23T15:39:34.957Z,3.57
2018-04-23T15:49:38.886Z,3.60
2018-04-23T15:59:42.160Z,3.60
2018-04-23T16:09:46.876Z,3.60
2018-04-23T16:19:50.077Z,3.90
2018-04-23T16:29:53.271Z,4.80
2018-04-23T16:39:56.820Z,4.10
2018-04-23T16:50:01.019Z,3.90
2018-04-23T17:00:04.443Z,4.03
2018-04-23T17:10:07.729Z,3.70
2018-04-23T17:20:10.912Z,4.20
2018-04-23T17:30:14.114Z,4.10
2018-04-23T17:40:18.861Z,4.33
2018-04-23T17:50:22.088Z,4.03
2018-04-23T18:00:25.689Z,4.40
2018-04-23T18:10:28.946Z,4.10
2018-04-23T18:20:32.412Z,4.30
2018-04-23T18:30:36.451Z,4.80
2018-04-23T18:40:39.914Z,4.70
2018-04-23T18:50:44.265Z,4.50
2018-04-23T19:00:48.343Z,4.73
2018-04-23T19:10:52.307Z,4.73
2018-04-23T19:20:55.535Z,4.90
2018-04-23T19:30:58.809Z,5.07
2018-04-23T19:41:02.541Z,4.40
2018-04-23T19:51:05.849Z,4.40
2018-04-23T20:01:09.061Z,4.10
2018-04-23T20:11:13.021Z,3.90
2018-04-23T20:21:16.519Z,3.67
2018-04-23T20:31:21.812Z,3.80
2018-04-23T20:41:26.945Z,3.70
2018-04-23T20:51:31.328Z,3.63
2018-04-23T21:01:34.747Z,3.40
2018-04-23T21:11:38.454Z,3.30
2018-04-23T21:21:41.632Z,3.33
2018-04-23T21:31:44.831Z,3.60
2018-04-23T21:41:48.015Z,2.90
2018-04-23T21:51:51.973Z,3.70
2018-04-23T22:01:56.005Z,3.63
2018-04-23T22:11:59.572Z,3.73
2018-04-23T22:22:04.324Z,3.90
2018-04-23T22:32:07.576Z,4.03
2018-04-23T22:42:10.760Z,3.67
2018-04-23T22:52:13.969Z,3.60
2018-04-23T23:02:18.690Z,3.20
2018-04-23T23:12:21.885Z,3.47
2018-04-23T23:22:25.068Z,3.03
2018-04-23T23:32:28.244Z,3.30
2018-04-23T23:42:31.516Z,3.37
2018-04-23T23:52:34.691Z,3.43
